Time;durP1;ratioP1;P1;durP2;ratioP2;P2;SDS_P1;SDS_P2;PMS_P1;PMS_P2;Temp;Humidity;BMP_temperature;BMP_pressure;BME280_temperature;BME280_humidity;BME280_pressure;Samples;Min_cycle;Max_cycle;Signal;HPM_P1;HPM_P2
2022/06/17 00:01:39;;;;;;;2.78;2.58;;;;;;;;;;5117332;27;20047;-85
2022/06/17 00:04:05;;;;;;;3.75;2.83;;;;;;;;;;5135937;27;20027;-86
2022/06/17 00:06:36;;;;;;;2.97;2.67;;;;;;;;;;5134491;27;20022;-86
2022/06/17 00:09:04;;;;;;;3.03;2.53;;;;;;;;;;5134531;27;20026;-88
2022/06/17 00:11:34;;;;;;;3.17;2.88;;;;;;;;;;5117155;27;20088;-87
2022/06/17 00:14:00;;;;;;;3.25;2.95;;;;;;;;;;5134570;27;20565;-86
2022/06/17 00:16:26;;;;;;;3.83;2.83;;;;;;;;;;5117539;27;20051;-85
2022/06/17 00:18:52;;;;;;;3.45;3.15;;;;;;;;;;5136295;27;20408;-88
2022/06/17 00:21:29;;;;;;;3.20;2.90;;;;;;;;;;5125308;27;20019;-89
2022/06/17 00:23:55;;;;;;;3.40;3.10;;;;;;;;;;5133603;27;20047;-87
2022/06/17 00:26:21;;;;;;;3.60;3.30;;;;;;;;;;5135981;27;20054;-87
2022/06/17 00:28:48;;;;;;;3.40;3.10;;;;;;;;;;5136531;27;20038;-87
2022/06/17 00:31:13;;;;;;;3.42;3.13;;;;;;;;;;5116897;27;20023;-87
2022/06/17 00:33:39;;;;;;;3.20;2.90;;;;;;;;;;5112917;27;20038;-87
2022/06/17 00:36:09;;;;;;;3.45;3.15;;;;;;;;;;5133698;27;20098;-89
2022/06/17 00:38:36;;;;;;;4.30;3.97;;;;;;;;;;5117596;27;20104;-86
2022/06/17 00:41:33;;;;;;;3.30;3.00;;;;;;;;;;5135413;27;20019;-88
2022/06/17 00:44:28;;;;;;;3.67;3.00;;;;;;;;;;5131320;27;20039;-89
2022/06/17 00:47:17;;;;;;;3.55;3.17;;;;;;;;;;5113950;28;20443;-87
2022/06/17 00:50:15;;;;;;;3.63;3.20;;;;;;;;;;5121433;27;20108;-86
2022/06/17 00:52:50;;;;;;;2.80;2.60;;;;;;;;;;5132697;27;20051;-86
2022/06/17 00:55:39;;;;;;;2.80;2.60;;;;;;;;;;5135156;27;20450;-87
2022/06/17 00:58:13;;;;;;;3.85;2.75;;;;;;;;;;5131329;27;20052;-87
2022/06/17 01:00:39;;;;;;;3.10;2.80;;;;;;;;;;5115437;27;20035;-86
2022/06/17 01:03:15;;;;;;;3.00;2.70;;;;;;;;;;5133693;27;20425;-85
2022/06/17 01:05:49;;;;;;;4.70;3.17;;;;;;;;;;5134052;27;20069;-85
2022/06/17 01:09:57;;;;;;;3.00;2.70;;;;;;;;;;5116535;27;20051;-84
2022/06/17 01:11:08;;;;;;;3.70;3.03;;;;;;;;;;5134566;27;20031;-87
2022/06/17 01:13:36;;;;;;;3.13;2.83;;;;;;;;;;5115894;27;20427;-86
2022/06/17 01:16:03;;;;;;;3.10;2.80;;;;;;;;;;5134397;27;20076;-86
2022/06/17 01:18:31;;;;;;;3.55;2.88;;;;;;;;;;5115860;27;20036;-85
2022/06/17 01:21:02;;;;;;;2.88;2.67;;;;;;;;;;5134146;27;20099;-86
2022/06/17 01:23:29;;;;;;;3.45;3.15;;;;;;;;;;5134328;27;20116;-86
2022/06/17 01:25:55;;;;;;;3.13;2.83;;;;;;;;;;5132064;27;20027;-85
2022/06/17 01:28:20;;;;;;;3.42;2.92;;;;;;;;;;5134613;27;20033;-85
2022/06/17 01:30:51;;;;;;;3.13;2.83;;;;;;;;;;5115665;27;20519;-87
2022/06/17 01:33:25;;;;;;;3.70;2.90;;;;;;;;;;5115394;27;20026;-84
2022/06/17 01:35:53;;;;;;;3.20;2.90;;;;;;;;;;5115529;27;20083;-85
2022/06/17 01:38:21;;;;;;;3.78;2.90;;;;;;;;;;5114277;27;20433;-83
2022/06/17 01:40:46;;;;;;;3.20;2.85;;;;;;;;;;5133647;27;20098;-85
2022/06/17 01:43:15;;;;;;;3.05;2.75;;;;;;;;;;5115439;27;20065;-85
2022/06/17 01:45:47;;;;;;;3.60;3.30;;;;;;;;;;5133559;27;20023;-86
2022/06/17 01:48:14;;;;;;;3.63;3.22;;;;;;;;;;5130417;27;20042;-84
2022/06/17 01:50:42;;;;;;;3.25;2.90;;;;;;;;;;5115244;27;20178;-85
2022/06/17 01:53:11;;;;;;;3.17;2.88;;;;;;;;;;5133422;27;20031;-84
2022/06/17 01:55:51;;;;;;;4.78;3.00;;;;;;;;;;5133024;27;20156;-85
2022/06/17 01:58:33;;;;;;;3.55;3.25;;;;;;;;;;5112413;27;20471;-84
2022/06/17 02:01:01;;;;;;;3.40;3.10;;;;;;;;;;5132348;27;20351;-87
2022/06/17 02:03:41;;;;;;;3.35;3.05;;;;;;;;;;5114191;27;20463;-83
2022/06/17 02:06:06;;;;;;;4.65;3.30;;;;;;;;;;5114365;27;20037;-88
2022/06/17 02:08:32;;;;;;;3.10;2.80;;;;;;;;;;5114840;27;20019;-85
2022/06/17 02:10:57;;;;;;;3.55;3.25;;;;;;;;;;5114622;27;20038;-84
2022/06/17 02:13:23;;;;;;;3.55;3.25;;;;;;;;;;5133402;27;20042;-86
2022/06/17 02:15:49;;;;;;;3.53;3.22;;;;;;;;;;5114995;27;20397;-87
2022/06/17 02:18:18;;;;;;;4.00;3.60;;;;;;;;;;5133867;27;20059;-85
2022/06/17 02:20:48;;;;;;;4.05;3.05;;;;;;;;;;5133006;27;20470;-86
2022/06/17 02:23:14;;;;;;;3.55;3.25;;;;;;;;;;5116344;27;20057;-87
2022/06/17 02:25:44;;;;;;;3.40;3.10;;;;;;;;;;5115643;27;20027;-88
2022/06/17 02:28:11;;;;;;;4.03;3.63;;;;;;;;;;5113975;27;20059;-84
2022/06/17 02:30:40;;;;;;;3.53;3.22;;;;;;;;;;5133254;27;20025;-85
2022/06/17 02:33:06;;;;;;;4.65;3.53;;;;;;;;;;5115071;27;20023;-86
2022/06/17 02:35:38;;;;;;;3.42;3.13;;;;;;;;;;5132528;27;20027;-86
2022/06/17 02:38:04;;;;;;;4.35;3.53;;;;;;;;;;5113463;27;20047;-87
2022/06/17 02:40:35;;;;;;;3.83;3.45;;;;;;;;;;5133105;27;20423;-84
2022/06/17 02:43:05;;;;;;;4.22;3.83;;;;;;;;;;5114555;27;20172;-84
2022/06/17 02:45:31;;;;;;;;;;;;;;;;;;5113857;27;20027;-83
2022/06/17 02:47:58;;;;;;;3.55;3.25;;;;;;;;;;5133118;27;19993;-85
2022/06/17 02:50:26;;;;;;;3.90;3.60;;;;;;;;;;5132960;27;20051;-84
2022/06/17 02:52:53;;;;;;;3.63;3.33;;;;;;;;;;5128970;27;20057;-86
2022/06/17 02:55:39;;;;;;;4.70;3.50;;;;;;;;;;5131437;27;20015;-86
2022/06/17 02:58:46;;;;;;;4.05;3.13;;;;;;;;;;5130938;28;20039;-85
2022/06/17 03:01:19;;;;;;;3.63;3.33;;;;;;;;;;5121010;28;20035;-85
2022/06/17 03:03:46;;;;;;;3.60;3.30;;;;;;;;;;5130476;28;20024;-85
2022/06/17 03:06:19;;;;;;;4.00;3.28;;;;;;;;;;5114113;28;20109;-86
2022/06/17 03:08:51;;;;;;;3.50;3.20;;;;;;;;;;5132637;28;20383;-86
2022/06/17 03:11:16;;;;;;;3.45;3.15;;;;;;;;;;5132258;28;20079;-86
2022/06/17 03:13:49;;;;;;;3.60;3.30;;;;;;;;;;5113646;28;20035;-86
2022/06/17 03:16:16;;;;;;;3.63;3.33;;;;;;;;;;5130406;28;20034;-87
2022/06/17 03:18:44;;;;;;;3.38;3.08;;;;;;;;;;5131252;28;20041;-86
2022/06/17 03:21:09;;;;;;;4.78;3.28;;;;;;;;;;5115083;28;20019;-85
2022/06/17 03:23:53;;;;;;;4.15;3.55;;;;;;;;;;5114803;28;20027;-87
2022/06/17 03:26:24;;;;;;;3.58;3.28;;;;;;;;;;5113705;27;20034;-87
2022/06/17 03:28:51;;;;;;;3.95;3.10;;;;;;;;;;5136046;27;20050;-87
2022/06/17 03:31:40;;;;;;;3.75;3.25;;;;;;;;;;5118269;27;20031;-88
2022/06/17 03:34:12;;;;;;;3.47;3.17;;;;;;;;;;5135656;27;20030;-85
2022/06/17 03:36:59;;;;;;;3.58;3.25;;;;;;;;;;5135848;27;20462;-86
2022/06/17 03:39:38;;;;;;;3.35;3.05;;;;;;;;;;5094665;28;20043;-87
2022/06/17 03:42:21;;;;;;;3.60;3.25;;;;;;;;;;5093709;28;20032;-88
2022/06/17 03:44:57;;;;;;;3.00;2.78;;;;;;;;;;5094456;28;20567;-87
2022/06/17 03:47:42;;;;;;;2.80;2.60;;;;;;;;;;5094784;28;20032;-85
2022/06/17 03:50:18;;;;;;;3.47;3.15;;;;;;;;;;5127230;27;20085;-85
2022/06/17 03:52:50;;;;;;;3.08;2.88;;;;;;;;;;5095769;28;20024;-85
2022/06/17 03:55:17;;;;;;;3.85;3.08;;;;;;;;;;5095037;28;20124;-87
2022/06/17 03:57:45;;;;;;;3.67;3.28;;;;;;;;;;5090364;28;20471;-86
2022/06/17 04:00:24;;;;;;;3.10;2.85;;;;;;;;;;5095492;28;20024;-85
2022/06/17 04:02:51;;;;;;;3.40;3.10;;;;;;;;;;5096035;28;20471;-85
2022/06/17 04:05:16;;;;;;;3.25;2.95;;;;;;;;;;5093991;28;20461;-87
2022/06/17 04:07:42;;;;;;;3.10;2.90;;;;;;;;;;5096217;28;20043;-86
2022/06/17 04:10:15;;;;;;;3.60;3.30;;;;;;;;;;5092183;28;20023;-86
2022/06/17 04:12:45;;;;;;;3.50;3.20;;;;;;;;;;5096131;28;20099;-85
2022/06/17 04:15:30;;;;;;;3.42;3.13;;;;;;;;;;5096061;28;20074;-87
2022/06/17 04:17:56;;;;;;;4.07;3.70;;;;;;;;;;5096514;28;20464;-86
2022/06/17 04:20:32;;;;;;;3.58;3.15;;;;;;;;;;5096286;28;20036;-86
2022/06/17 04:23:25;;;;;;;4.10;3.80;;;;;;;;;;5095920;28;20110;-87
2022/06/17 04:26:16;;;;;;;3.72;3.42;;;;;;;;;;5091574;28;20032;-86
2022/06/17 04:28:52;;;;;;;3.70;3.40;;;;;;;;;;5094582;28;20077;-85
2022/06/17 04:31:20;;;;;;;4.03;3.58;;;;;;;;;;5094349;28;20046;-86
2022/06/17 04:34:14;;;;;;;3.67;3.38;;;;;;;;;;5093156;28;20020;-86
2022/06/17 04:36:48;;;;;;;4.55;3.50;;;;;;;;;;5094624;28;20046;-89
2022/06/17 04:39:13;;;;;;;3.50;3.20;;;;;;;;;;5093864;28;20522;-89
2022/06/17 04:41:40;;;;;;;3.60;3.28;;;;;;;;;;5092849;28;20098;-88
2022/06/17 04:44:06;;;;;;;3.95;3.55;;;;;;;;;;5093221;28;20111;-87
2022/06/17 04:46:41;;;;;;;3.63;3.33;;;;;;;;;;5091895;28;20032;-86
2022/06/17 04:49:15;;;;;;;3.90;3.60;;;;;;;;;;5091845;28;20353;-85
2022/06/17 04:51:40;;;;;;;3.88;3.47;;;;;;;;;;5088774;28;20016;-84
2022/06/17 04:54:06;;;;;;;3.90;3.50;;;;;;;;;;5090171;28;20499;-85
2022/06/17 04:56:34;;;;;;;3.30;3.00;;;;;;;;;;5094061;28;20059;-84
2022/06/17 04:59:14;;;;;;;3.65;3.35;;;;;;;;;;5091040;28;20077;-85
2022/06/17 05:01:40;;;;;;;3.38;3.08;;;;;;;;;;5092236;28;20024;-86
2022/06/17 05:04:06;;;;;;;4.07;3.25;;;;;;;;;;5093661;28;20593;-85
2022/06/17 05:06:31;;;;;;;4.75;3.83;;;;;;;;;;5089760;28;20225;-87
2022/06/17 05:09:22;;;;;;;4.38;3.97;;;;;;;;;;5091610;28;20054;-86
2022/06/17 05:11:51;;;;;;;4.22;3.80;;;;;;;;;;5092600;28;20102;-86
2022/06/17 05:14:29;;;;;;;3.88;3.45;;;;;;;;;;5087236;28;20051;-87
2022/06/17 05:16:57;;;;;;;3.80;3.40;;;;;;;;;;5092040;28;20027;-86
2022/06/17 05:19:22;;;;;;;3.90;3.60;;;;;;;;;;5090948;28;20074;-87
2022/06/17 05:21:48;;;;;;;4.30;3.63;;;;;;;;;;5090492;28;20443;-87
2022/06/17 05:24:14;;;;;;;4.32;3.30;;;;;;;;;;5092214;28;20024;-86
2022/06/17 05:26:40;;;;;;;3.40;3.10;;;;;;;;;;5092329;28;20491;-87
2022/06/17 05:29:08;;;;;;;4.25;3.55;;;;;;;;;;5092462;28;20032;-87
2022/06/17 05:31:35;;;;;;;3.72;3.42;;;;;;;;;;5093524;28;20034;-88
2022/06/17 05:34:01;;;;;;;3.80;3.50;;;;;;;;;;5093306;28;20022;-87
2022/06/17 05:36:27;;;;;;;3.42;3.00;;;;;;;;;;5088598;28;21431;-87
2022/06/17 05:38:52;;;;;;;3.20;2.90;;;;;;;;;;5127617;27;20054;-86
2022/06/17 05:41:20;;;;;;;3.75;3.45;;;;;;;;;;5133863;27;20023;-87
2022/06/17 05:43:46;;;;;;;3.22;2.92;;;;;;;;;;5116167;27;20027;-86
2022/06/17 05:46:11;;;;;;;4.05;3.17;;;;;;;;;;5116256;27;20080;-87
2022/06/17 05:48:37;;;;;;;4.00;3.10;;;;;;;;;;5115530;27;20109;-88
2022/06/17 05:51:03;;;;;;;3.75;3.38;;;;;;;;;;5132676;27;20432;-87
2022/06/17 05:53:28;;;;;;;3.63;3.28;;;;;;;;;;5132441;27;20019;-86
2022/06/17 05:55:56;;;;;;;3.53;3.13;;;;;;;;;;5133503;27;20023;-88
2022/06/17 05:58:22;;;;;;;3.50;3.00;;;;;;;;;;5133989;27;20034;-88
2022/06/17 06:00:48;;;;;;;4.93;3.00;;;;;;;;;;5134021;27;20023;-87
2022/06/17 06:03:26;;;;;;;3.22;2.92;;;;;;;;;;5134034;27;20160;-88
2022/06/17 06:05:52;;;;;;;4.32;3.25;;;;;;;;;;5134452;27;20378;-87
2022/06/17 06:08:18;;;;;;;4.18;3.38;;;;;;;;;;5134069;27;20038;-88
2022/06/17 06:10:43;;;;;;;4.00;3.00;;;;;;;;;;5115378;27;20056;-88
2022/06/17 06:13:27;;;;;;;3.20;2.90;;;;;;;;;;5115072;27;20027;-87
2022/06/17 06:15:55;;;;;;;2.92;2.63;;;;;;;;;;5114816;27;20031;-88
2022/06/17 06:18:29;;;;;;;3.10;2.83;;;;;;;;;;5133552;27;20093;-87
2022/06/17 06:20:54;;;;;;;3.17;2.88;;;;;;;;;;5132512;27;20117;-88
2022/06/17 06:23:20;;;;;;;3.13;2.60;;;;;;;;;;5114336;27;20223;-87
2022/06/17 06:25:45;;;;;;;3.50;2.40;;;;;;;;;;5133643;27;20471;-88
2022/06/17 06:28:22;;;;;;;2.67;2.47;;;;;;;;;;5133440;27;20029;-88
2022/06/17 06:30:57;;;;;;;3.90;2.75;;;;;;;;;;5113129;27;20067;-88
2022/06/17 06:33:23;;;;;;;4.18;2.78;;;;;;;;;;5113103;27;20122;-87
2022/06/17 06:35:49;;;;;;;2.90;2.45;;;;;;;;;;5133127;27;20095;-87
2022/06/17 06:38:14;;;;;;;3.83;2.40;;;;;;;;;;5112242;27;20548;-87
2022/06/17 06:40:40;;;;;;;2.80;2.47;;;;;;;;;;5132276;27;20049;-88
2022/06/17 06:43:17;;;;;;;2.50;2.13;;;;;;;;;;5132965;27;20527;-85
2022/06/17 06:45:45;;;;;;;4.13;2.42;;;;;;;;;;5133208;27;20030;-86
2022/06/17 06:48:12;;;;;;;4.07;3.70;;;;;;;;;;5131997;27;20390;-86
2022/06/17 06:50:38;;;;;;;2.95;2.65;;;;;;;;;;5133476;27;20178;-86
2022/06/17 06:53:05;;;;;;;3.53;3.22;;;;;;;;;;5132673;27;20080;-86
2022/06/17 06:55:31;;;;;;;2.97;2.75;;;;;;;;;;5133150;27;20023;-86
2022/06/17 06:57:59;;;;;;;3.45;2.33;;;;;;;;;;5132644;28;20025;-86
2022/06/17 07:00:28;;;;;;;2.20;2.00;;;;;;;;;;5113491;27;20124;-86
2022/06/17 07:02:53;;;;;;;3.65;2.08;;;;;;;;;;5114567;28;20153;-86
2022/06/17 07:05:19;;;;;;;2.45;1.90;;;;;;;;;;5114885;28;21168;-90
2022/06/17 07:07:46;;;;;;;2.13;1.92;;;;;;;;;;5113620;28;20045;-88
2022/06/17 07:10:22;;;;;;;2.00;1.80;;;;;;;;;;5113550;28;20034;-86
2022/06/17 07:12:47;;;;;;;2.40;1.88;;;;;;;;;;5114109;28;20027;-86
2022/06/17 07:15:14;;;;;;;2.45;1.88;;;;;;;;;;5113994;28;20042;-85
2022/06/17 07:17:40;;;;;;;2.35;2.00;;;;;;;;;;5114512;28;20042;-87
2022/06/17 07:20:06;;;;;;;2.38;2.05;;;;;;;;;;5132663;28;20027;-88
2022/06/17 07:22:32;;;;;;;2.17;1.98;;;;;;;;;;5131286;28;20022;-86
2022/06/17 07:24:58;;;;;;;2.10;1.90;;;;;;;;;;5130930;28;20027;-89
2022/06/17 07:27:23;;;;;;;2.63;2.22;;;;;;;;;;5132201;28;20027;-86
2022/06/17 07:29:49;;;;;;;2.40;2.20;;;;;;;;;;5112974;28;20027;-86
2022/06/17 07:32:14;;;;;;;2.15;1.95;;;;;;;;;;5113589;28;20031;-85
2022/06/17 07:34:40;;;;;;;2.25;1.90;;;;;;;;;;5131845;28;20053;-88
2022/06/17 07:39:55;;;;;;;2.50;2.00;;;;;;;;;;5132147;28;20123;-87
2022/06/17 07:42:37;;;;;;;4.07;1.88;;;;;;;;;;5113337;28;20023;-86
2022/06/17 07:45:14;;;;;;;2.45;2.00;;;;;;;;;;5131969;28;20023;-87
2022/06/17 07:47:40;;;;;;;2.40;1.90;;;;;;;;;;5130782;28;20102;-86
2022/06/17 07:50:09;;;;;;;2.38;2.17;;;;;;;;;;5129822;28;20034;-86
2022/06/17 07:52:36;;;;;;;2.85;2.55;;;;;;;;;;5113443;28;20034;-85
2022/06/17 07:55:03;;;;;;;2.80;2.20;;;;;;;;;;5122318;28;20023;-85
2022/06/17 07:57:28;;;;;;;2.83;1.83;;;;;;;;;;5131301;28;20035;-86
2022/06/17 07:59:53;;;;;;;2.08;1.83;;;;;;;;;;5132931;28;20084;-87
2022/06/17 08:02:19;;;;;;;1.95;1.77;;;;;;;;;;5129312;28;20023;-86
2022/06/17 08:04:44;;;;;;;2.22;2.00;;;;;;;;;;5131200;28;20054;-86
2022/06/17 08:07:11;;;;;;;2.58;1.88;;;;;;;;;;5113801;28;20055;-85
2022/06/17 08:09:36;;;;;;;2.22;1.92;;;;;;;;;;5130716;28;20419;-83
2022/06/17 08:12:03;;;;;;;2.10;1.90;;;;;;;;;;5131431;27;20054;-85
2022/06/17 08:14:28;;;;;;;3.35;1.83;;;;;;;;;;5116203;27;20113;-88
2022/06/17 08:16:54;;;;;;;3.33;2.55;;;;;;;;;;5134651;27;20106;-86
2022/06/17 08:19:20;;;;;;;2.72;1.75;;;;;;;;;;5135796;27;20113;-86
2022/06/17 08:21:45;;;;;;;2.38;1.70;;;;;;;;;;5135859;27;20030;-87
2022/06/17 08:24:12;;;;;;;3.35;2.17;;;;;;;;;;5116179;27;20023;-87
2022/06/17 08:26:37;;;;;;;2.65;1.98;;;;;;;;;;5112479;27;20412;-88
2022/06/17 08:29:03;;;;;;;2.15;1.92;;;;;;;;;;5134347;27;20019;-86
2022/06/17 08:31:28;;;;;;;2.97;1.90;;;;;;;;;;5131505;27;20442;-88
2022/06/17 08:33:53;;;;;;;2.10;1.90;;;;;;;;;;5116158;27;20463;-86
2022/06/17 08:36:22;;;;;;;2.85;2.17;;;;;;;;;;5130794;27;20050;-86
2022/06/17 08:38:50;;;;;;;2.47;2.17;;;;;;;;;;5134963;27;20384;-90
2022/06/17 08:41:27;;;;;;;3.28;2.20;;;;;;;;;;5135288;27;20866;-87
2022/06/17 08:44:12;;;;;;;2.25;1.85;;;;;;;;;;5135207;27;20467;-88
2022/06/17 08:46:44;;;;;;;2.08;1.88;;;;;;;;;;5118122;27;20039;-86
2022/06/17 08:49:33;;;;;;;2.70;2.15;;;;;;;;;;5131017;27;20415;-87
2022/06/17 08:52:31;;;;;;;2.00;1.80;;;;;;;;;;5116190;27;20033;-84
2022/06/17 08:55:24;;;;;;;2.88;1.95;;;;;;;;;;5118259;27;20459;-85
2022/06/17 08:57:59;;;;;;;2.58;2.10;;;;;;;;;;5133126;27;20027;-86
2022/06/17 09:00:46;;;;;;;2.92;2.10;;;;;;;;;;5117676;27;20091;-87
2022/06/17 09:03:39;;;;;;;2.85;2.03;;;;;;;;;;5132693;27;20496;-85
2022/06/17 09:06:13;;;;;;;3.33;1.90;;;;;;;;;;5117287;27;20067;-85
2022/06/17 09:08:48;;;;;;;2.85;2.20;;;;;;;;;;5130903;27;20023;-87
2022/06/17 09:11:51;;;;;;;2.70;2.20;;;;;;;;;;5133538;27;20030;-86
2022/06/17 09:14:27;;;;;;;2.22;1.90;;;;;;;;;;5073190;27;20031;-86
2022/06/17 09:16:56;;;;;;;2.72;1.92;;;;;;;;;;5133795;27;20030;-85
2022/06/17 09:19:33;;;;;;;2.17;1.92;;;;;;;;;;5135354;27;20035;-86
2022/06/17 09:22:09;;;;;;;2.95;1.98;;;;;;;;;;5135266;27;20042;-87
2022/06/17 09:24:41;;;;;;;2.53;1.90;;;;;;;;;;5116541;27;20033;-87
2022/06/17 09:27:28;;;;;;;2.15;1.95;;;;;;;;;;5135656;27;20142;-85
2022/06/17 09:30:06;;;;;;;3.00;1.85;;;;;;;;;;5118894;27;20031;-85
2022/06/17 09:32:44;;;;;;;2.85;1.95;;;;;;;;;;5136572;27;20065;-87
2022/06/17 09:35:15;;;;;;;2.80;1.95;;;;;;;;;;5115727;27;20048;-86
2022/06/17 09:37:57;;;;;;;2.53;1.90;;;;;;;;;;5134457;27;20039;-86
2022/06/17 09:40:28;;;;;;;2.13;1.80;;;;;;;;;;5114657;27;20043;-88
2022/06/17 09:43:02;;;;;;;5.38;2.17;;;;;;;;;;5134444;27;20031;-87
2022/06/17 09:45:40;;;;;;;2.22;1.80;;;;;;;;;;5115665;27;20023;-85
2022/06/17 09:48:20;;;;;;;1.85;1.75;;;;;;;;;;5114386;27;20027;-85
2022/06/17 09:51:01;;;;;;;4.78;1.90;;;;;;;;;;5132813;27;20015;-85
2022/06/17 09:53:35;;;;;;;2.60;1.55;;;;;;;;;;5133034;27;20034;-85
2022/06/17 09:56:09;;;;;;;3.38;1.70;;;;;;;;;;5115143;27;20027;-86
2022/06/17 09:58:48;;;;;;;4.95;1.35;;;;;;;;;;5131846;27;20034;-86
2022/06/17 10:01:15;;;;;;;1.65;1.20;;;;;;;;;;5114410;27;20110;-84
2022/06/17 10:03:41;;;;;;;1.33;1.20;;;;;;;;;;5113882;27;20027;-84
2022/06/17 10:06:29;;;;;;;1.48;1.38;;;;;;;;;;5129919;27;20023;-86
2022/06/17 10:09:13;;;;;;;1.20;1.10;;;;;;;;;;5113724;27;20092;-85
2022/06/17 10:12:09;;;;;;;2.00;1.50;;;;;;;;;;5131242;27;20455;-86
2022/06/17 10:14:37;;;;;;;2.15;1.85;;;;;;;;;;5114811;27;20429;-84
2022/06/17 10:20:34;;;;;;;1.60;1.10;;;;;;;;;;5132837;27;20146;-84
2022/06/17 10:23:36;;;;;;;1.20;1.10;;;;;;;;;;5010884;28;20037;-84
2022/06/17 10:26:22;;;;;;;0.80;0.80;;;;;;;;;;5132194;27;20376;-86
2022/06/17 10:29:02;;;;;;;0.80;0.80;;;;;;;;;;5114029;27;20057;-84
2022/06/17 10:31:33;;;;;;;2.28;1.30;;;;;;;;;;5131673;27;20364;-86
2022/06/17 10:34:03;;;;;;;1.55;0.98;;;;;;;;;;5115078;27;20027;-86
2022/06/17 10:36:30;;;;;;;1.45;1.17;;;;;;;;;;5111127;27;20048;-87
2022/06/17 10:38:56;;;;;;;1.40;1.10;;;;;;;;;;5132836;27;20074;-88
2022/06/17 10:41:21;;;;;;;1.20;1.08;;;;;;;;;;5133981;27;20034;-86
2022/06/17 10:43:49;;;;;;;0.82;0.80;;;;;;;;;;5114808;28;20027;-87
2022/06/17 10:46:21;;;;;;;1.33;0.80;;;;;;;;;;5131295;27;20076;-88
2022/06/17 10:48:50;;;;;;;1.00;0.90;;;;;;;;;;5132191;27;20027;-85
2022/06/17 10:51:16;;;;;;;0.80;0.63;;;;;;;;;;5115146;27;20380;-87
2022/06/17 10:53:52;;;;;;;0.93;0.80;;;;;;;;;;5132658;27;20019;-87
2022/06/17 10:56:42;;;;;;;0.85;0.73;;;;;;;;;;5129310;27;20038;-86
2022/06/17 10:59:10;;;;;;;0.70;0.70;;;;;;;;;;5130207;27;20502;-85
2022/06/17 11:01:45;;;;;;;1.00;0.80;;;;;;;;;;5115008;28;20031;-87
2022/06/17 11:04:35;;;;;;;0.80;0.80;;;;;;;;;;5113653;28;20034;-87
2022/06/17 11:07:00;;;;;;;;;;;;;;;;;;5116097;28;20055;-86
2022/06/17 11:09:40;;;;;;;1.10;0.75;;;;;;;;;;5114633;28;19972;-87
2022/06/17 11:12:16;;;;;;;0.90;0.90;;;;;;;;;;5113854;28;20019;-85
2022/06/17 11:14:57;;;;;;;1.00;0.85;;;;;;;;;;5132335;28;20029;-86
2022/06/17 11:17:55;;;;;;;0.70;0.70;;;;;;;;;;5131643;28;20102;-86
2022/06/17 11:20:26;;;;;;;0.95;0.90;;;;;;;;;;5109790;28;20078;-87
2022/06/17 11:23:19;;;;;;;1.20;0.90;;;;;;;;;;5113948;28;20025;-87
2022/06/17 11:25:46;;;;;;;1.20;1.10;;;;;;;;;;5131796;28;20035;-85
2022/06/17 11:28:18;;;;;;;1.52;1.00;;;;;;;;;;5130527;28;20024;-85
2022/06/17 11:31:01;;;;;;;0.90;0.90;;;;;;;;;;5127132;28;20023;-86
2022/06/17 11:33:28;;;;;;;1.20;0.90;;;;;;;;;;5132176;28;20475;-86
2022/06/17 11:36:19;;;;;;;0.98;0.95;;;;;;;;;;5128373;28;20030;-87
2022/06/17 11:38:45;;;;;;;1.13;1.10;;;;;;;;;;5117577;28;20436;-88
2022/06/17 11:41:19;;;;;;;1.20;0.90;;;;;;;;;;5111521;28;20019;-86
2022/06/17 11:43:47;;;;;;;1.88;1.20;;;;;;;;;;5125831;28;20034;-88
2022/06/17 11:46:19;;;;;;;1.13;1.00;;;;;;;;;;5132164;28;20019;-85
2022/06/17 11:48:54;;;;;;;1.38;1.02;;;;;;;;;;5111602;27;20026;-87
2022/06/17 11:51:30;;;;;;;1.42;1.33;;;;;;;;;;5132667;27;20038;-86
2022/06/17 11:54:04;;;;;;;1.52;1.35;;;;;;;;;;5119146;27;20026;-87
2022/06/17 11:56:38;;;;;;;1.63;1.35;;;;;;;;;;5117700;27;20462;-86
2022/06/17 11:59:26;;;;;;;1.40;1.30;;;;;;;;;;5116200;27;20027;-86
2022/06/17 12:01:54;;;;;;;1.88;1.60;;;;;;;;;;5133189;27;20452;-86
2022/06/17 12:04:41;;;;;;;1.38;1.27;;;;;;;;;;5115659;27;20031;-85
2022/06/17 12:07:32;;;;;;;1.90;1.30;;;;;;;;;;5130622;27;20096;-85
2022/06/17 12:10:13;;;;;;;1.63;1.23;;;;;;;;;;5115426;27;20023;-84
2022/06/17 12:12:39;;;;;;;2.00;1.35;;;;;;;;;;5133873;27;20372;-86
2022/06/17 12:15:09;;;;;;;1.85;1.52;;;;;;;;;;5117244;27;20019;-84
2022/06/17 12:17:38;;;;;;;1.67;1.40;;;;;;;;;;5132680;27;20109;-85
2022/06/17 12:20:11;;;;;;;1.30;1.20;;;;;;;;;;5135471;27;20111;-85
2022/06/17 12:22:48;;;;;;;1.52;1.20;;;;;;;;;;5130672;27;20382;-85
2022/06/17 12:25:28;;;;;;;2.08;1.23;;;;;;;;;;5135101;27;20038;-85
2022/06/17 12:28:24;;;;;;;1.95;1.20;;;;;;;;;;5135049;27;20078;-85
2022/06/17 12:31:14;;;;;;;1.10;1.10;;;;;;;;;;5133583;27;20023;-87
2022/06/17 12:33:49;;;;;;;1.63;1.08;;;;;;;;;;5130838;27;20160;-83
2022/06/17 12:36:26;;;;;;;1.20;1.10;;;;;;;;;;5115559;27;20383;-86
2022/06/17 12:39:10;;;;;;;0.90;0.90;;;;;;;;;;5131010;27;20080;-87
2022/06/17 12:41:48;;;;;;;1.08;1.00;;;;;;;;;;5131821;27;20481;-83
2022/06/17 12:44:42;;;;;;;1.15;1.05;;;;;;;;;;5115446;27;20034;-85
2022/06/17 12:47:45;;;;;;;1.35;1.00;;;;;;;;;;5113840;27;20030;-86
2022/06/17 12:53:22;;;;;;;1.42;1.00;;;;;;;;;;5133988;27;20099;-89
2022/06/17 12:55:47;;;;;;;0.88;0.80;;;;;;;;;;5131909;27;20455;-85
2022/06/17 12:58:22;;;;;;;1.20;1.10;;;;;;;;;;5133267;27;20034;-87
2022/06/17 13:01:02;;;;;;;1.20;0.90;;;;;;;;;;5128605;27;20053;-86
2022/06/17 13:03:27;;;;;;;1.20;1.08;;;;;;;;;;5131857;27;20031;-86
2022/06/17 13:05:58;;;;;;;1.08;0.80;;;;;;;;;;5131536;27;20409;-86
2022/06/17 13:08:40;;;;;;;1.00;0.90;;;;;;;;;;5131942;27;20026;-85
2022/06/17 13:11:34;;;;;;;1.05;0.95;;;;;;;;;;5132696;27;20023;-85
2022/06/17 13:14:25;;;;;;;0.80;0.80;;;;;;;;;;5113921;27;20059;-87
2022/06/17 13:17:01;;;;;;;0.82;0.82;;;;;;;;;;5133192;27;20475;-88
2022/06/17 13:19:40;;;;;;;1.02;0.70;;;;;;;;;;5113071;27;20023;-88
2022/06/17 13:22:14;;;;;;;0.70;0.70;;;;;;;;;;5132573;27;20035;-88
2022/06/17 13:25:09;;;;;;;0.70;0.70;;;;;;;;;;5115169;27;20109;-87
2022/06/17 13:27:54;;;;;;;0.88;0.80;;;;;;;;;;5128313;27;20467;-88
2022/06/17 13:30:57;;;;;;;0.90;0.70;;;;;;;;;;5132335;27;20067;-87
2022/06/17 13:33:28;;;;;;;0.80;0.70;;;;;;;;;;5084971;27;20035;-87
2022/06/17 13:36:20;;;;;;;0.68;0.65;;;;;;;;;;5132882;27;20027;-87
2022/06/17 13:38:56;;;;;;;1.33;0.68;;;;;;;;;;5114018;27;20047;-86
2022/06/17 13:41:30;;;;;;;0.75;0.75;;;;;;;;;;5127142;27;20031;-85
2022/06/17 13:44:05;;;;;;;0.85;0.70;;;;;;;;;;5131824;27;20031;-86
2022/06/17 13:46:33;;;;;;;1.65;0.80;;;;;;;;;;5111392;27;20040;-89
2022/06/17 13:49:16;;;;;;;0.70;0.70;;;;;;;;;;5132171;27;20055;-87
2022/06/17 13:52:23;;;;;;;0.60;0.60;;;;;;;;;;5132647;27;20346;-86
2022/06/17 13:55:21;;;;;;;0.80;0.70;;;;;;;;;;5126529;27;20039;-89
2022/06/17 13:57:58;;;;;;;0.70;0.70;;;;;;;;;;5077623;27;20066;-86
2022/06/17 14:00:34;;;;;;;0.88;0.70;;;;;;;;;;5110002;27;20039;-86
2022/06/17 14:03:13;;;;;;;1.83;0.85;;;;;;;;;;5111687;27;20033;-89
2022/06/17 14:05:39;;;;;;;0.98;0.70;;;;;;;;;;5128217;27;20051;-87
2022/06/17 14:09:03;;;;;;;0.77;0.77;;;;;;;;;;5131337;27;20037;-89
2022/06/17 14:11:37;;;;;;;0.85;0.70;;;;;;;;;;5045358;28;20635;-86
2022/06/17 14:14:37;;;;;;;0.80;0.80;;;;;;;;;;5056471;28;20020;-87
2022/06/17 14:17:19;;;;;;;0.70;0.70;;;;;;;;;;5081347;27;20506;-86
2022/06/17 14:19:56;;;;;;;0.77;0.77;;;;;;;;;;5111137;27;20039;-88
2022/06/17 14:22:28;;;;;;;0.70;0.70;;;;;;;;;;5130126;27;20030;-88
2022/06/17 14:24:56;;;;;;;0.68;0.68;;;;;;;;;;5132249;27;20471;-87
2022/06/17 14:27:24;;;;;;;1.00;0.90;;;;;;;;;;5132829;27;20027;-88
2022/06/17 14:30:15;;;;;;;0.70;0.70;;;;;;;;;;5131550;27;20155;-86
2022/06/17 14:32:43;;;;;;;0.70;0.70;;;;;;;;;;5111915;27;20031;-86
2022/06/17 14:35:26;;;;;;;1.27;0.80;;;;;;;;;;5129937;27;20043;-88
2022/06/17 14:38:22;;;;;;;1.02;0.90;;;;;;;;;;5127459;27;20042;-87
2022/06/17 14:44:17;;;;;;;;;;;;;;;;;;5131897;27;20388;-88
2022/06/17 14:47:23;;;;;;;0.63;0.60;;;;;;;;;;5131992;27;20373;-89
2022/06/17 14:50:20;;;;;;;0.63;0.63;;;;;;;;;;5109424;28;20016;-85
2022/06/17 14:53:11;;;;;;;0.95;0.80;;;;;;;;;;5129830;27;20027;-87
2022/06/17 14:56:28;;;;;;;1.08;0.80;;;;;;;;;;5129938;27;20032;-87
2022/06/17 14:59:02;;;;;;;0.90;0.63;;;;;;;;;;5131068;27;20542;-89
2022/06/17 15:01:49;;;;;;;0.70;0.68;;;;;;;;;;5130423;28;20023;-86
2022/06/17 15:04:32;;;;;;;0.88;0.80;;;;;;;;;;5132057;28;20042;-86
2022/06/17 15:07:22;;;;;;;1.95;0.80;;;;;;;;;;5130565;28;20424;-85
2022/06/17 15:09:53;;;;;;;1.05;0.90;;;;;;;;;;5110165;28;20031;-89
2022/06/17 15:12:24;;;;;;;1.17;0.70;;;;;;;;;;5113663;28;20031;-87
2022/06/17 15:14:59;;;;;;;0.82;0.70;;;;;;;;;;5131863;28;20019;-86
2022/06/17 15:17:44;;;;;;;0.90;0.90;;;;;;;;;;5126492;28;20035;-86
2022/06/17 15:20:25;;;;;;;1.35;0.80;;;;;;;;;;5131181;28;20506;-89
2022/06/17 15:23:19;;;;;;;0.70;0.70;;;;;;;;;;5134452;27;20019;-86
2022/06/17 15:26:08;;;;;;;0.75;0.75;;;;;;;;;;5116588;27;20049;-86
2022/06/17 15:28:36;;;;;;;0.70;0.70;;;;;;;;;;5131416;27;20028;-86
2022/06/17 15:31:07;;;;;;;0.60;0.60;;;;;;;;;;5118289;27;20097;-87
2022/06/17 15:33:37;;;;;;;0.95;0.82;;;;;;;;;;5136722;27;20027;-88
2022/06/17 15:36:04;;;;;;;1.10;1.00;;;;;;;;;;5136622;27;20340;-86
2022/06/17 15:38:34;;;;;;;1.42;0.95;;;;;;;;;;5136747;27;20526;-85